Latest Weather Observations for Tunnack

IDT60801

Issued at 10:01 am EST Monday 27 June 2016 (issued every 30 minutes, with the page automatically refreshed every 10 minutes)

About weather observations | Map of weather stations | Latest weather observations for TAS | Other Formats
Station Details ID: 094195 Name: TUNNACK FIRE STATION Lat: -42.45 Lon: 147.46 Height: 461.5 m
Data from the previous 72 hours. | See also: Recent months at Tunnack
Date/Time
EST
Temp
°C
App
Temp
°C
Dew
Point
Rel
Hum
%
Delta-T
°C
Wind Press
QNH
hPa
Press
MSL
hPa
Rain
since 9 am
mm
Dir
 
Spd
km/h
Gust
km/h
Spd
kts
Gust
kts
27/10:00am 6.1 2.2 3.6 84 1.1 NW 13 19 7 10 1011.5 1012.4 0.0
27/09:30am 4.4 0.7 2.4 87 0.8 NW 11 13 6 7 1011.5 1012.4 0.0
27/09:00am 3.4 0.1 2.2 92 0.5 WNW 9 11 5 6 1011.4 1012.3 0.2
27/08:30am 2.3 -1.5 1.7 96 0.2 WNW 11 13 6 7 1011.1 1012.0 0.2
27/08:00am 1.9 -1.0 1.3 96 0.2 WSW 6 9 3 5 1010.9 1011.8 0.2
27/07:30am 1.4 -1.6 0.7 95 0.3 WNW 6 7 3 4 1010.6 1011.5 0.2
27/07:00am 1.6 -0.7 0.4 92 0.5 SSW 2 6 1 3 1010.4 1011.3 0.2
27/06:30am 2.4 -1.5 1.1 91 0.5 NW 11 13 6 7 1010.0 1011.0 0.2
27/06:00am 2.9 0.0 1.7 92 0.5 W 6 7 3 4 1009.8 1010.7 0.2
27/05:30am 2.9 0.8 1.9 93 0.4 W 2 7 1 4 1009.5 1010.4 0.2
27/05:00am 2.4 -0.1 1.5 94 0.4 SW 4 9 2 5 1009.1 1010.0 0.2
27/04:30am 2.7 -0.3 1.8 94 0.4 SE 7 11 4 6 1009.0 1009.9 0.2
27/04:00am 3.7 0.4 2.5 92 0.5 W 9 13 5 7 1009.1 1010.0 0.2
27/03:30am 3.6 0.3 2.6 93 0.4 WNW 9 13 5 7 1009.1 1010.0 0.2
27/03:00am 3.6 -0.9 2.3 91 0.5 NW 15 17 8 9 1008.9 1009.8 0.2
27/02:30am 4.2 -0.5 3.0 92 0.5 NNW 17 20 9 11 1009.0 1009.9 0.2
27/02:00am 3.8 -0.3 2.5 91 0.5 NNW 13 19 7 10 1009.1 1010.0 0.2
27/01:30am 3.9 0.2 2.4 90 0.6 NW 11 15 6 8 1009.1 1010.0 0.2
27/01:00am 4.3 -0.1 2.7 89 0.7 NNW 15 20 8 11 1009.1 1010.0 0.2
27/12:30am 4.4 -0.9 3.1 91 0.5 NNW 20 26 11 14 1008.9 1009.8 0.2
27/12:00am 4.7 -0.6 3.2 90 0.6 N 20 26 11 14 1008.9 1009.8 0.2
 
Date/Time
EST
Temp
°C
App
Temp
°C
Dew
Point
Rel
Hum
%
Delta-T
°C
Wind Press
QNH
hPa
Press
MSL
hPa
Rain
since 9 am
mm
Dir
 
Spd
km/h
Gust
km/h
Spd
kts
Gust
kts
26/11:30pm 4.8 -0.5 3.1 89 0.7 N 20 30 11 16 1008.9 1009.8 0.2
26/11:00pm 4.8 -0.4 3.3 90 0.6 N 20 28 11 15 1009.0 1009.9 0.2
26/10:30pm 4.3 -0.9 3.3 93 0.4 N 20 32 11 17 1009.3 1010.2 0.2
26/10:00pm 4.3 -0.9 3.6 95 0.3 N 20 28 11 15 1009.6 1010.5 0.2
26/09:30pm 4.3 -0.9 3.4 94 0.4 N 20 28 11 15 1009.6 1010.5 0.2
26/09:00pm 4.5 -0.7 3.6 94 0.4 N 20 28 11 15 1009.8 1010.7 0.2
26/08:30pm 4.5 -0.7 3.5 93 0.4 N 20 28 11 15 1010.3 1011.2 0.2
26/08:00pm 4.6 -0.1 3.3 91 0.6 N 17 24 9 13 1010.3 1011.2 0.2
26/07:30pm 4.6 -0.1 3.3 91 0.6 N 17 24 9 13 1010.4 1011.3 0.2
26/07:00pm 5.4 -0.9 3.6 88 0.8 N 26 32 14 17 1010.4 1011.3 0.2
26/06:30pm 5.7 0.6 3.9 88 0.8 N 20 26 11 14 1010.3 1011.2 0.2
26/06:00pm 6.0 0.5 4.2 88 0.8 N 22 30 12 16 1010.3 1011.2 0.2
26/05:30pm 6.1 1.0 4.3 88 0.8 N 20 26 11 14 1010.3 1011.2 0.2
26/05:00pm 5.8 1.2 3.8 87 0.9 N 17 20 9 11 1010.3 1011.2 0.2
26/04:30pm 6.0 1.1 4.3 89 0.7 N 19 22 10 12 1010.4 1011.3 0.2
26/04:00pm 6.3 1.3 4.5 88 0.8 N 20 26 11 14 1010.6 1011.5 0.2
26/03:30pm 6.5 2.4 4.3 86 1.0 NNW 15 19 8 10 1010.7 1011.6 0.2
26/03:00pm 5.7 4.4 3.9 88 0.8 CALM 0 4 0 2 1011.0 1011.9 0.2
26/02:30pm 5.8 2.8 4.1 89 0.7 N 9 15 5 8 1011.2 1012.1 0.2
26/02:00pm 6.0 1.2 4.6 91 0.6 N 19 24 10 13 1011.4 1012.3 0.2
26/01:30pm 4.8 -0.4 3.6 92 0.5 N 20 33 11 18 1011.7 1012.7 0.2
26/01:00pm 4.8 -0.4 3.5 91 0.6 N 20 28 11 15 1012.0 1013.0 0.2
26/12:30pm 6.0 1.0 3.7 85 1.0 NNW 19 24 10 13 1012.3 1013.3 0.2
26/12:00pm 6.6 2.0 3.6 81 1.3 N 17 24 9 13 1012.8 1013.7 0.2
26/11:30am 5.9 1.6 3.1 82 1.2 N 15 20 8 11 1013.4 1014.3 0.2
26/11:00am 6.6 2.0 3.6 81 1.3 NNW 17 26 9 14 1014.0 1015.0 0.2
26/10:30am 7.2 2.9 3.3 76 1.7 NW 15 20 8 11 1014.4 1015.4 0.2
26/10:00am 5.2 3.5 4.0 92 0.5 N 2 7 1 4 1014.7 1015.6 0.2
26/09:30am 3.5 0.7 3.1 97 0.2 E 7 9 4 5 1014.5 1015.5 0.2
26/09:00am 2.2 -0.8 1.9 98 0.1 ESE 7 9 4 5 1014.8 1015.7 0.0
26/08:30am 0.5 -2.8 0.1 97 0.1 ESE 7 7 4 4 1015.0 1015.9 0.0
26/08:00am 1.3 -1.7 0.9 97 0.2 E 6 7 3 4 1015.0 1015.9 0.0
26/07:30am 0.7 -2.6 0.3 97 0.2 ESE 7 9 4 5 1015.0 1015.9 0.0
26/07:00am 1.6 -0.2 1.2 97 0.2 CALM 0 0 0 0 1015.1 1016.0 0.0
26/06:30am 0.6 -2.1 0.2 97 0.1 NNW 4 7 2 4 1015.0 1015.9 0.0
26/06:00am 0.0 -2.4 -0.6 96 0.2 N 2 11 1 6 1014.9 1015.8 0.0
26/05:30am 1.0 -2.6 0.6 97 0.2 NW 9 15 5 8 1014.7 1015.6 0.0
26/05:00am 1.2 -2.8 0.8 97 0.2 WNW 11 13 6 7 1014.5 1015.5 0.0
26/04:30am 1.1 -1.9 0.7 97 0.2 WNW 6 9 3 5 1014.5 1015.5 0.0
26/04:00am 0.6 -1.7 0.2 97 0.1 WSW 2 6 1 3 1014.4 1015.4 0.0
26/03:30am 1.2 -2.0 0.8 97 0.2 ESE 7 11 4 6 1014.7 1015.6 0.0
26/03:00am 0.6 -2.5 0.2 97 0.1 SE 6 7 3 4 1015.0 1015.9 0.0
26/02:30am 1.5 -0.7 1.1 97 0.2 NNW 2 7 1 4 1015.1 1016.0 0.0
26/02:00am 0.3 -2.9 -0.4 95 0.3 ENE 6 7 3 4 1015.3 1016.2 0.0
26/01:30am 2.5 -0.9 2.1 97 0.2 WNW 9 11 5 6 1015.2 1016.1 0.0
26/01:00am 0.8 -1.2 0.1 95 0.3 CALM 0 0 0 0 1015.5 1016.5 0.0
26/12:30am 3.1 -0.2 2.5 96 0.2 W 9 13 5 7 1015.6 1016.6 0.0
26/12:00am 1.7 -0.9 1.0 95 0.3 E 4 7 2 4 1015.8 1016.8 0.0
 
Date/Time
EST
Temp
°C
App
Temp
°C
Dew
Point
Rel
Hum
%
Delta-T
°C
Wind Press
QNH
hPa
Press
MSL
hPa
Rain
since 9 am
mm
Dir
 
Spd
km/h
Gust
km/h
Spd
kts
Gust
kts
25/11:30pm 4.1 0.5 2.9 92 0.5 W 11 15 6 8 1015.7 1016.7 0.0
25/11:00pm 3.4 0.1 2.5 94 0.4 WNW 9 13 5 7 1015.9 1016.9 0.0
25/10:30pm 3.6 -0.1 2.3 91 0.5 NW 11 13 6 7 1016.0 1017.0 0.0
25/10:00pm 4.7 1.6 3.5 92 0.5 NW 9 13 5 7 1016.3 1017.3 0.0
25/09:30pm 4.6 1.5 3.4 92 0.5 WNW 9 13 5 7 1016.4 1017.4 0.0
25/09:00pm 4.1 0.9 3.1 93 0.4 W 9 13 5 7 1016.6 1017.6 0.0
25/08:30pm 3.5 0.6 2.6 94 0.4 WNW 7 9 4 5 1016.6 1017.6 0.0
25/08:00pm 2.9 0.5 1.9 93 0.4 ENE 4 9 2 5 1016.7 1017.7 0.0
25/07:30pm 4.1 1.3 3.1 93 0.4 WNW 7 9 4 5 1016.7 1017.7 0.0
25/07:00pm 3.1 1.4 1.9 92 0.5 CALM 0 0 0 0 1016.6 1017.6 0.0
25/06:30pm 3.1 1.3 1.5 89 0.6 CALM 0 0 0 0 1016.4 1017.4 0.0
25/06:00pm 3.5 0.1 1.9 89 0.6 WSW 9 13 5 7 1016.2 1017.2 0.0
25/05:30pm 4.6 0.5 2.3 85 1.0 WSW 13 15 7 8 1016.0 1017.0 0.0
25/05:00pm 4.8 0.7 2.2 83 1.1 WNW 13 17 7 9 1016.1 1017.1 0.0
25/04:30pm 5.1 1.8 2.3 82 1.2 WNW 9 11 5 6 1016.0 1017.0 0.0
25/04:00pm 6.8 3.1 2.3 73 1.9 W 11 17 6 9 1015.9 1016.9 0.0
25/03:30pm 7.2 2.8 2.5 72 2.0 W 15 22 8 12 1015.9 1016.9 0.0
25/03:00pm 7.2 2.8 2.5 72 2.0 W 15 24 8 13 1015.6 1016.6 0.0
25/02:30pm 6.6 2.5 2.1 73 1.9 WSW 13 20 7 11 1015.7 1016.7 0.0
25/02:00pm 5.9 2.1 1.6 74 1.8 W 11 17 6 9 1015.9 1016.9 0.0
25/01:30pm 5.9 2.1 1.8 75 1.7 WNW 11 17 6 9 1016.1 1017.1 0.0
25/01:00pm 6.1 1.8 1.1 70 2.0 W 13 19 7 10 1016.1 1017.1 0.0
25/12:30pm 5.7 0.6 0.9 71 1.9 WSW 17 26 9 14 1016.3 1017.3 0.0
25/12:00pm 5.4 0.2 0.2 69 2.1 WSW 17 28 9 15 1016.4 1017.4 0.0
25/11:30am 5.2 -0.4 0.0 69 2.0 WSW 19 30 10 16 1016.3 1017.3 0.0
25/11:00am 4.9 0.5 0.1 71 1.9 W 13 20 7 11 1016.5 1017.5 0.0
25/10:30am 3.9 -0.9 0.2 77 1.4 WNW 15 20 8 11 1016.6 1017.6 0.0
25/10:00am 3.0 -2.3 -0.3 79 1.3 WNW 17 19 9 10 1016.5 1017.5 0.0
25/09:30am 2.2 -3.1 -0.4 83 1.0 WNW 17 20 9 11 1016.0 1017.0 0.0
25/09:00am 1.2 -3.4 -0.9 86 0.8 WNW 13 17 7 9 1015.7 1016.7 0.2
25/08:30am 0.0 -3.9 -1.4 90 0.5 WNW 9 11 5 6 1015.4 1016.4 0.0
25/08:00am -0.7 -4.3 -2.1 90 0.5 W 7 9 4 5 1015.2 1016.1 0.0
25/07:30am -0.4 -4.4 -2.3 87 0.6 WNW 9 11 5 6 1014.9 1015.8 0.0
25/07:00am 0.4 -4.3 -2.0 84 0.9 W 13 20 7 11 1014.4 1015.4 0.0
25/06:30am 0.5 -3.8 -1.7 85 0.8 W 11 19 6 10 1014.2 1015.2 0.0
25/06:00am 0.0 -4.0 -2.1 86 0.7 WNW 9 15 5 8 1013.7 1014.7 0.0
25/05:30am 0.0 -4.0 -2.2 85 0.8 W 9 13 5 7 1013.3 1014.2 0.0
25/05:00am 0.1 -3.9 -2.3 84 0.9 WSW 9 11 5 6 1013.1 1014.0 0.0
25/04:30am -0.7 -4.2 -2.7 86 0.7 WNW 6 9 3 5 1012.7 1013.6 0.0
25/04:00am 0.4 -3.6 -2.3 82 1.0 WNW 9 17 5 9 1012.6 1013.5 0.0
25/03:30am -0.2 -3.8 -2.3 86 0.7 WNW 7 15 4 8 1012.2 1013.2 0.0
25/03:00am 0.6 -4.1 -2.1 82 1.0 W 13 20 7 11 1011.9 1012.9 0.0
25/02:30am 0.2 -4.6 -2.2 84 0.9 W 13 20 7 11 1011.8 1012.8 0.0
25/02:00am 0.0 -4.8 -2.2 85 0.8 W 13 17 7 9 1011.3 1012.2 0.0
25/01:30am 0.1 -4.6 -2.1 85 0.8 W 13 17 7 9 1010.9 1011.8 0.0
25/01:00am 0.4 -4.3 -2.1 83 0.9 WSW 13 20 7 11 1010.7 1011.6 0.0
25/12:30am 0.8 -4.7 -1.8 83 1.0 WSW 17 24 9 13 1010.4 1011.3 0.0
25/12:00am 0.2 -3.7 -1.7 87 0.7 W 9 15 5 8 1009.9 1010.9 0.0
 
Date/Time
EST
Temp
°C
App
Temp
°C
Dew
Point
Rel
Hum
%
Delta-T
°C
Wind Press
QNH
hPa
Press
MSL
hPa
Rain
since 9 am
mm
Dir
 
Spd
km/h
Gust
km/h
Spd
kts
Gust
kts
24/11:30pm 0.7 -4.0 -1.5 85 0.8 WSW 13 19 7 10 1009.5 1010.4 0.0
24/11:00pm 1.2 -4.6 -1.2 84 0.9 W 19 33 10 18 1009.1 1010.0 0.0
24/10:30pm 1.2 -3.8 -1.2 84 0.9 WSW 15 22 8 12 1008.8 1009.7 0.0
24/10:00pm 1.3 -3.7 -1.3 83 0.9 WSW 15 24 8 13 1008.5 1009.4 0.0
24/09:30pm 1.4 -4.0 -1.3 82 1.0 WSW 17 26 9 14 1007.9 1008.7 0.0
24/09:00pm 1.5 -3.9 -1.2 82 1.0 WSW 17 26 9 14 1007.3 1008.2 0.0
24/08:30pm 1.8 -2.8 -1.3 80 1.1 WSW 13 19 7 10 1007.0 1007.9 0.0
24/08:00pm 1.9 -3.8 -1.0 81 1.1 WSW 19 32 10 17 1006.5 1007.4 0.0
24/07:30pm 2.0 -3.9 -0.9 81 1.1 WSW 20 32 11 17 1005.8 1006.6 0.0
24/07:00pm 2.0 -3.3 -0.9 81 1.1 W 17 28 9 15 1004.8 1005.7 0.0
24/06:30pm 2.0 -2.9 -0.6 83 1.0 WSW 15 20 8 11 1004.3 1005.1 0.0
24/06:00pm 2.1 -2.0 -0.3 84 0.9 W 11 17 6 9 1003.7 1004.5 0.0
24/05:30pm 2.6 -2.3 -0.5 80 1.2 W 15 26 8 14 1003.1 1004.0 0.0
24/05:00pm 2.9 -2.0 -0.5 78 1.3 WSW 15 24 8 13 1002.4 1003.2 0.0
24/04:30pm 3.2 -1.2 0.1 80 1.2 WSW 13 20 7 11 1001.8 1002.6 0.0
24/04:00pm 3.9 -0.9 -0.1 75 1.6 WSW 15 22 8 12 1001.3 1002.1 0.0
24/03:30pm 5.2 0.7 -0.2 68 2.1 WSW 13 20 7 11 1000.4 1001.2 0.0
24/03:00pm 5.6 1.2 0.2 68 2.2 WSW 13 20 7 11 999.8 1000.6 0.0
24/02:30pm 6.0 1.7 1.3 72 1.9 WSW 13 20 7 11 999.4 1000.2 0.0
24/02:00pm 5.7 0.6 0.7 70 2.0 WSW 17 24 9 13 998.8 999.5 0.0
24/01:30pm 5.6 0.4 0.2 68 2.1 WSW 17 24 9 13 998.7 999.4 0.0
24/01:00pm 5.7 1.6 2.0 77 1.6 WNW 13 19 7 10 998.3 999.1 0.0
24/12:30pm 4.7 0.4 1.2 78 1.4 W 13 19 7 10 998.2 999.0 0.0
24/12:00pm 4.9 1.5 1.6 79 1.4 W 9 15 5 8 998.2 999.0 0.0
24/11:30am 3.8 -0.5 1.2 83 1.0 WNW 13 17 7 9 997.9 998.7 0.0
24/11:00am 2.9 -0.7 0.5 84 0.9 WNW 9 17 5 9 997.5 998.3 0.0
24/10:30am 2.5 -1.6 -0.1 83 1.0 NNW 11 15 6 8 997.0 997.7 0.0

Other Formats:

Comma delimited format used in spreadsheet applications
http://www.bom.gov.au/fwo/IDT60801/IDT60801.94960.axf

JavaScript Object Notation format (JSON) in row-major order
http://www.bom.gov.au/fwo/IDT60801/IDT60801.94960.json